This is the latest recevied weather packets stored in our database for station/object BV3BA-13. If no packets are shown the sender has not sent any weather packets the latest 1 day(s).
| Time | Temp. | Humidity | Pressure | Rain* | Wind** | Luminosity | Snow |
|---|---|---|---|---|---|---|---|
| 1836274798 | 32.22° C | 65% | 1006.6 hPa | 0 mm | 1.79 m/s, 0° | - | - |
| 1836274197 | 32.22° C | 65% | 1006.6 hPa | 0 mm | 1.79 m/s, 0° | - | - |
| 1778039223 | 25° C | 81% | 1010.5 hPa | 0 mm | 1.79 m/s, 20° | - | - |
| 1778038623 | 24.44° C | 82% | 1010.5 hPa | 0 mm | 1.79 m/s, 0° | - | - |
| 1778038024 | 24.44° C | 83% | 1010.6 hPa | 0 mm | 1.79 m/s, 350° | - | - |
| 1778037425 | 24.44° C | 85% | 1010.7 hPa | 0 mm | 1.34 m/s, 10° | - | - |
| 1778036824 | 24.44° C | 85% | 1010.8 hPa | 0 mm | 0.89 m/s, 320° | - | - |
| 1778036223 | 24.44° C | 82% | 1010.8 hPa | 0 mm | 0.89 m/s, 340° | - | - |
| 1778035623 | 24.44° C | 85% | 1010.8 hPa | 0 mm | 1.34 m/s, 310° | - | - |
| 1778035024 | 24.44° C | 84% | 1010.9 hPa | 0 mm | 0.89 m/s, 310° | - | - |
| 1778034423 | 23.89° C | 85% | 1010.9 hPa | 0 mm | 0.45 m/s, 0° | - | - |
| 1778033823 | 24.44° C | 84% | 1010.9 hPa | 0 mm | 0.45 m/s, 20° | - | - |
| 1778033224 | 23.89° C | 86% | 1011.1 hPa | 0 mm | 0.89 m/s, 50° | - | - |
| 1778032623 | 23.33° C | 87% | 1011.1 hPa | 0 mm | 0 m/s | - | - |
| 1778032023 | 23.33° C | 88% | 1011.2 hPa | 0 mm | 0.89 m/s, 30° | - | - |
| 1778031424 | 23.33° C | 87% | 1011.2 hPa | 0 mm | 1.34 m/s, 20° | - | - |
| 1778030823 | 24.44° C | 89% | 1011.1 hPa | 0 mm | 0.45 m/s, 90° | - | - |
| 1778030224 | 23.33° C | 89% | 1011.1 hPa | 0 mm | 0.45 m/s, 160° | - | - |
| 1778029624 | 22.78° C | 91% | 1011.1 hPa | 0 mm | 0 m/s | - | - |
| 1778029023 | 22.78° C | 89% | 1011.1 hPa | 0 mm | 0.45 m/s, 90° | - | - |
| 1778028424 | 22.78° C | 91% | 1011 hPa | 0 mm | 0.45 m/s, 130° | - | - |
| 1778027823 | 22.78° C | 91% | 1011 hPa | 0 mm | 0.45 m/s, 50° | - | - |
| 1778027223 | 22.78° C | 93% | 1011 hPa | 0 mm | 0.89 m/s, 110° | - | - |
| 1778026624 | 22.22° C | 95% | 1011 hPa | 0 mm | 0.89 m/s, 110° | - | - |
| 1778026025 | 21.67° C | 95% | 1011 hPa | 0 mm | 0.89 m/s, 70° | - | - |
* Rain latest hour (hover to see other rain measurements)
** Current wind speed in m/s (hover to see current wind gust speed)